Terminal Aerodrome Forecast
Issued by NWS

Home | Current Version | Previous Version | Text Only | Print | Product List | Glossary Off
Versions: 1 2 3 4 5 6 7 8 9 10 11 12 13 14 15

788
FTUS43 KGRB 232336
TAFAUW
TAF
KAUW 232336Z 2400/2424 29010G19KT P6SM SCT050 BKN070
     FM240300 29007KT P6SM SCT035 BKN050
     FM241000 29008KT P6SM SCT015 BKN040
      TEMPO 2410/2414 BKN015
     FM241600 29012G18KT P6SM SCT015 BKN035 PROB30 2418/2424 4SM
      -SHRA BKN025=

USA.gov is the U.S. government's official web portal to all federal, state and local government web resources and services.